Time;durP1;ratioP1;P1;durP2;ratioP2;P2;SDS_P1;SDS_P2;PMS_P1;PMS_P2;Temp;Humidity;BMP_temperature;BMP_pressure;BME280_temperature;BME280_humidity;BME280_pressure;Samples;Min_cycle;Max_cycle;Signal;HPM_P1;HPM_P2
2022/01/02 00:02:12;;;;;;;11.10;6.15;;;8.40;99.90;;;;;;5016882;28;20244;-80
2022/01/02 00:04:46;;;;;;;9.38;6.25;;;8.30;99.90;;;;;;5008674;28;20290;-82
2022/01/02 00:07:16;;;;;;;9.73;6.05;;;8.10;99.90;;;;;;5008089;28;20210;-82
2022/01/02 00:09:47;;;;;;;9.23;6.85;;;8.30;99.90;;;;;;5007397;28;20201;-82
2022/01/02 00:12:17;;;;;;;7.57;5.28;;;8.30;99.90;;;;;;5011722;28;20190;-82
2022/01/02 00:14:47;;;;;;;11.48;6.10;;;8.40;99.90;;;;;;5011586;28;20229;-82
2022/01/02 00:17:17;;;;;;;8.05;5.45;;;8.40;99.90;;;;;;5011910;28;20230;-83
2022/01/02 00:19:52;;;;;;;9.80;6.50;;;8.20;99.90;;;;;;5007041;28;20229;-82
2022/01/02 00:22:25;;;;;;;9.98;6.15;;;8.10;99.90;;;;;;5005687;28;20196;-82
2022/01/02 00:24:53;;;;;;;10.45;6.00;;;8.20;99.90;;;;;;5005276;28;20262;-81
2022/01/02 00:27:21;;;;;;;9.43;5.85;;;8.30;99.90;;;;;;5004905;28;20303;-82
2022/01/02 00:29:49;;;;;;;10.68;5.80;;;8.20;99.90;;;;;;5004930;28;20212;-82
2022/01/02 00:32:15;;;;;;;10.00;5.53;;;8.20;99.90;;;;;;5007515;28;20328;-82
2022/01/02 00:34:42;;;;;;;10.15;5.70;;;8.10;99.90;;;;;;5007144;28;20216;-83
2022/01/02 00:37:09;;;;;;;9.48;6.10;;;8.10;99.90;;;;;;5009774;28;20285;-81
2022/01/02 00:39:39;;;;;;;8.65;5.40;;;7.90;99.90;;;;;;5013816;28;20225;-81
2022/01/02 00:42:08;;;;;;;9.57;5.70;;;7.90;99.90;;;;;;5017695;28;20325;-80
2022/01/02 00:44:49;;;;;;;10.00;5.50;;;7.90;99.90;;;;;;5012908;28;20210;-81
2022/01/02 00:47:21;;;;;;;10.77;5.38;;;7.80;99.90;;;;;;5017164;28;20367;-82
2022/01/02 00:50:05;;;;;;;8.50;5.30;;;7.80;99.90;;;;;;5005549;28;20190;-82
2022/01/02 00:52:36;;;;;;;8.48;5.70;;;7.80;99.90;;;;;;5002822;28;20588;-83
2022/01/02 00:55:06;;;;;;;7.30;4.47;;;7.90;99.90;;;;;;5006661;28;20262;-82
2022/01/02 00:57:36;;;;;;;9.25;5.97;;;7.90;99.90;;;;;;5005872;28;20221;-82
2022/01/02 01:00:14;;;;;;;7.28;4.85;;;8.20;99.90;;;;;;5005216;28;20229;-81
2022/01/02 01:02:46;;;;;;;7.38;4.70;;;8.10;99.90;;;;;;5007930;28;20242;-83
2022/01/02 01:05:19;;;;;;;7.40;5.00;;;8.10;99.90;;;;;;5017744;28;20209;-82
2022/01/02 01:07:48;;;;;;;13.00;5.15;;;8.00;99.90;;;;;;5016779;28;20228;-80
2022/01/02 01:10:16;;;;;;;7.82;4.75;;;8.00;99.90;;;;;;5007357;28;20320;-82
2022/01/02 01:12:44;;;;;;;7.30;4.70;;;7.90;99.90;;;;;;5005945;28;20209;-81
2022/01/02 01:15:12;;;;;;;7.55;5.32;;;7.90;99.90;;;;;;5005532;28;20205;-82
2022/01/02 01:17:40;;;;;;;8.57;5.78;;;7.80;99.90;;;;;;5004031;28;20309;-80
2022/01/02 01:20:09;;;;;;;7.15;4.80;;;7.90;99.90;;;;;;5005081;28;20233;-83
2022/01/02 01:22:36;;;;;;;9.65;5.90;;;7.80;99.90;;;;;;5009343;28;20223;-82
2022/01/02 01:25:07;;;;;;;8.48;5.00;;;7.80;99.90;;;;;;5010361;28;20259;-82
2022/01/02 01:27:35;;;;;;;7.57;5.05;;;7.90;99.90;;;;;;5010139;28;20571;-82
2022/01/02 01:30:03;;;;;;;8.75;5.28;;;7.90;99.90;;;;;;5007152;28;20297;-83
2022/01/02 01:32:30;;;;;;;8.00;5.18;;;8.10;99.90;;;;;;5016972;28;20223;-82
2022/01/02 01:34:57;;;;;;;7.80;4.45;;;8.00;99.90;;;;;;5010966;28;20208;-82
2022/01/02 01:37:24;;;;;;;7.45;5.60;;;7.80;99.90;;;;;;5014965;28;20284;-81
2022/01/02 01:39:51;;;;;;;6.70;4.28;;;7.70;99.90;;;;;;5007645;28;20232;-82
2022/01/02 01:42:28;;;;;;;8.02;4.70;;;7.70;99.90;;;;;;5004856;28;20593;-82
2022/01/02 01:47:46;;;;;;;6.75;4.60;;;7.70;99.90;;;;;;5003120;28;20264;-82
2022/01/02 01:50:13;;;;;;;8.07;4.63;;;7.70;99.90;;;;;;5011420;28;20293;-81
2022/01/02 01:52:40;;;;;;;9.25;5.55;;;7.80;99.90;;;;;;5014399;28;20281;-82
2022/01/02 01:55:08;;;;;;;6.68;4.05;;;7.90;99.90;;;;;;5010944;28;20273;-82
2022/01/02 01:57:35;;;;;;;9.02;4.93;;;8.00;99.90;;;;;;5005771;28;20205;-83
2022/01/02 02:00:06;;;;;;;9.48;5.70;;;7.90;99.90;;;;;;5005195;28;20319;-83
2022/01/02 02:02:34;;;;;;;7.93;5.15;;;7.70;99.90;;;;;;5014248;28;20235;-82
2022/01/02 02:05:01;;;;;;;10.32;5.55;;;7.60;99.90;;;;;;5013697;28;20296;-83
2022/01/02 02:07:37;;;;;;;11.95;5.22;;;7.70;99.90;;;;;;5008490;28;20311;-83
2022/01/02 02:10:12;;;;;;;6.72;4.55;;;7.70;99.90;;;;;;5004885;28;20228;-83
2022/01/02 02:12:39;;;;;;;7.30;4.82;;;7.70;99.90;;;;;;5004535;28;20197;-83
2022/01/02 02:15:09;;;;;;;5.85;4.32;;;7.70;99.90;;;;;;5006069;28;20300;-82
2022/01/02 02:17:36;;;;;;;7.70;5.10;;;7.70;99.90;;;;;;5011615;28;20193;-82
2022/01/02 02:20:14;;;;;;;8.15;4.55;;;7.70;99.90;;;;;;5017299;28;20717;-82
2022/01/02 02:22:44;;;;;;;8.68;5.30;;;7.70;99.90;;;;;;5010910;28;20245;-82
2022/01/02 02:25:12;;;;;;;10.23;5.25;;;7.70;99.90;;;;;;5008363;28;20196;-82
2022/01/02 02:27:39;;;;;;;9.85;5.43;;;7.60;99.90;;;;;;5004536;28;20223;-83
2022/01/02 02:30:07;;;;;;;8.30;4.95;;;7.70;99.90;;;;;;5004030;28;20231;-81
2022/01/02 02:32:34;;;;;;;7.18;4.90;;;7.70;99.90;;;;;;5006162;28;20581;-83
2022/01/02 02:35:01;;;;;;;8.15;4.72;;;7.60;99.90;;;;;;5008006;28;20709;-82
2022/01/02 02:37:30;;;;;;;7.85;4.70;;;7.60;99.90;;;;;;5009374;28;20230;-81
2022/01/02 02:39:57;;;;;;;9.88;5.88;;;7.60;99.90;;;;;;5007407;28;20280;-82
2022/01/02 02:42:33;;;;;;;8.52;5.40;;;7.70;99.90;;;;;;5007634;28;20261;-81
2022/01/02 02:48:59;;;;;;;8.07;5.10;;;7.80;99.90;;;;;;5008556;28;20193;-83
2022/01/02 02:50:46;;;;;;;7.90;5.40;;;7.80;99.90;;;;;;5009713;28;20251;-83
2022/01/02 02:53:16;;;;;;;7.65;4.85;;;7.90;99.90;;;;;;5008062;28;20193;-82
2022/01/02 02:55:46;;;;;;;6.47;4.60;;;7.90;99.90;;;;;;5005919;28;20216;-82
2022/01/02 03:01:07;;;;;;;7.95;5.13;;;7.90;99.90;;;;;;5141366;27;20577;-81
2022/01/02 03:03:34;;;;;;;7.90;5.03;;;8.00;99.90;;;;;;5140860;27;20214;-81
2022/01/02 03:06:01;;;;;;;10.73;5.07;;;8.10;99.90;;;;;;5140911;27;20257;-81
2022/01/02 03:08:28;;;;;;;7.72;4.32;;;8.10;99.90;;;;;;5141151;27;20727;-81
2022/01/02 03:10:54;;;;;;;8.07;4.72;;;8.00;99.90;;;;;;5148913;27;20253;-80
2022/01/02 03:13:21;;;;;;;7.28;4.65;;;8.00;99.90;;;;;;5142982;27;20217;-82
2022/01/02 03:15:48;;;;;;;9.38;4.68;;;7.80;99.90;;;;;;5142655;27;20220;-80
2022/01/02 03:18:16;;;;;;;7.45;4.65;;;7.80;99.90;;;;;;5142948;27;20204;-82
2022/01/02 03:20:43;;;;;;;8.57;5.05;;;7.70;99.90;;;;;;5143229;27;20232;-84
2022/01/02 03:23:11;;;;;;;8.93;4.93;;;7.60;99.90;;;;;;5143124;27;20533;-82
2022/01/02 03:25:38;;;;;;;7.78;4.75;;;7.80;99.90;;;;;;5144819;27;20247;-82
2022/01/02 03:28:05;;;;;;;6.32;4.75;;;7.90;99.90;;;;;;5156241;27;20188;-83
2022/01/02 03:30:32;;;;;;;6.00;4.13;;;8.00;99.90;;;;;;5155227;27;20237;-83
2022/01/02 03:32:59;;;;;;;9.48;5.18;;;8.00;99.90;;;;;;5153975;27;20300;-83
2022/01/02 03:35:27;;;;;;;7.55;4.82;;;7.70;99.90;;;;;;5155437;27;20228;-82
2022/01/02 03:37:54;;;;;;;7.15;5.10;;;7.90;99.90;;;;;;5155712;27;20228;-82
2022/01/02 03:40:21;;;;;;;7.57;4.55;;;7.70;99.90;;;;;;5145441;27;20689;-83
2022/01/02 03:42:48;;;;;;;8.32;5.18;;;7.80;99.90;;;;;;5144237;27;20215;-83
2022/01/02 03:45:15;;;;;;;7.05;4.10;;;7.90;99.90;;;;;;5147823;27;20227;-83
2022/01/02 03:47:42;;;;;;;7.35;4.47;;;8.00;99.90;;;;;;5142102;27;20206;-83
2022/01/02 03:50:09;;;;;;;8.25;5.10;;;8.10;99.90;;;;;;5144792;27;20225;-81
2022/01/02 03:52:38;;;;;;;6.40;4.35;;;8.10;99.90;;;;;;5147310;27;20269;-81
2022/01/02 03:55:06;;;;;;;6.25;4.28;;;8.20;99.90;;;;;;5143823;27;20205;-82
2022/01/02 03:57:33;;;;;;;7.03;4.25;;;8.20;99.90;;;;;;5145045;27;20268;-82
2022/01/02 04:00:00;;;;;;;7.10;5.15;;;8.10;99.90;;;;;;5142816;27;20578;-82
2022/01/02 04:02:27;;;;;;;6.50;4.35;;;8.10;99.90;;;;;;5146760;27;20228;-82
2022/01/02 04:04:54;;;;;;;8.90;4.30;;;7.90;99.90;;;;;;5152153;27;20216;-82
2022/01/02 04:07:20;;;;;;;6.97;4.72;;;7.90;99.90;;;;;;5143275;27;20678;-82
2022/01/02 04:09:50;;;;;;;6.53;4.63;;;7.80;99.90;;;;;;5141033;27;20260;-82
2022/01/02 04:12:17;;;;;;;7.93;4.85;;;8.00;99.90;;;;;;5128316;27;20224;-81
2022/01/02 04:14:45;;;;;;;6.75;3.85;;;7.80;99.90;;;;;;5127156;28;20272;-82
2022/01/02 04:17:11;;;;;;;6.38;4.38;;;7.70;99.90;;;;;;5126376;28;20210;-82
2022/01/02 04:19:38;;;;;;;7.60;4.63;;;7.60;99.90;;;;;;5126608;28;20229;-81
2022/01/02 04:22:05;;;;;;;7.88;4.60;;;7.50;99.90;;;;;;5128875;28;20311;-82
2022/01/02 04:24:32;;;;;;;8.25;4.85;;;7.40;99.90;;;;;;5129071;28;20233;-81
2022/01/02 04:27:00;;;;;;;8.85;5.18;;;7.40;99.90;;;;;;5127161;28;20801;-82
2022/01/02 04:29:27;;;;;;;6.43;4.40;;;7.40;99.90;;;;;;5126877;28;20241;-82
2022/01/02 04:31:54;;;;;;;7.07;4.60;;;7.60;99.90;;;;;;5130593;28;20651;-82
2022/01/02 04:34:20;;;;;;;9.73;4.88;;;7.60;99.90;;;;;;5134703;27;20205;-82
2022/01/02 04:36:47;;;;;;;9.75;4.15;;;7.40;99.90;;;;;;5131501;28;20197;-83
2022/01/02 04:39:14;;;;;;;5.60;4.03;;;7.50;99.90;;;;;;5127782;27;20272;-82
2022/01/02 04:41:41;;;;;;;8.75;4.00;;;7.50;99.90;;;;;;5128269;28;20292;-82
2022/01/02 04:44:09;;;;;;;6.18;4.05;;;7.30;99.90;;;;;;5126480;28;20213;-83
2022/01/02 04:46:36;;;;;;;10.10;4.60;;;7.20;99.90;;;;;;5129076;28;20207;-83
2022/01/02 04:49:03;;;;;;;8.40;4.47;;;7.20;99.90;;;;;;5127063;28;20269;-82
2022/01/02 04:51:30;;;;;;;7.53;3.95;;;7.20;99.90;;;;;;5129203;28;20294;-81
2022/01/02 04:53:57;;;;;;;7.55;4.30;;;7.20;99.90;;;;;;5137034;28;20232;-82
2022/01/02 04:56:23;;;;;;;7.75;4.60;;;7.20;99.90;;;;;;5136120;28;20213;-81
2022/01/02 04:58:50;;;;;;;6.65;4.32;;;7.20;99.90;;;;;;5135969;27;20256;-83
2022/01/02 05:01:19;;;;;;;7.45;4.28;;;7.10;99.90;;;;;;5139776;28;20280;-83
2022/01/02 05:03:46;;;;;;;6.25;4.35;;;7.00;99.90;;;;;;5139091;28;20193;-83
2022/01/02 05:06:13;;;;;;;7.57;4.40;;;7.10;99.90;;;;;;5132837;27;20255;-82
2022/01/02 05:08:43;;;;;;;6.53;4.13;;;7.00;99.90;;;;;;5137522;28;20218;-83
2022/01/02 05:11:10;;;;;;;8.10;4.78;;;7.20;99.90;;;;;;5128134;28;20255;-83
2022/01/02 05:13:37;;;;;;;7.43;4.38;;;7.30;99.90;;;;;;5128584;28;20215;-82
2022/01/02 05:16:04;;;;;;;6.90;4.50;;;7.20;99.90;;;;;;5127176;28;20219;-82
2022/01/02 05:18:32;;;;;;;7.85;4.75;;;7.10;99.90;;;;;;5127857;28;20292;-82
2022/01/02 05:20:59;;;;;;;7.70;3.95;;;7.10;99.90;;;;;;5124524;28;20312;-79
2022/01/02 05:23:26;;;;;;;8.20;4.10;;;6.80;99.90;;;;;;5126104;28;20215;-82
2022/01/02 05:25:53;;;;;;;6.40;4.35;;;7.10;99.90;;;;;;5128622;28;20213;-82
2022/01/02 05:28:19;;;;;;;7.63;3.90;;;7.00;99.90;;;;;;5131437;28;20215;-83
2022/01/02 05:30:46;;;;;;;8.55;3.83;;;7.10;99.90;;;;;;5129305;27;20231;-80
2022/01/02 05:33:13;;;;;;;6.72;4.47;;;7.00;99.90;;;;;;5129818;28;20217;-81
2022/01/02 05:35:41;;;;;;;10.88;4.50;;;7.00;99.90;;;;;;5137724;28;20216;-81
2022/01/02 05:38:08;;;;;;;8.13;4.60;;;6.80;99.90;;;;;;5131269;28;20196;-82
2022/01/02 05:40:35;;;;;;;7.30;4.82;;;6.60;99.90;;;;;;5151049;22;20229;-80
2022/01/02 05:43:04;;;;;;;10.48;4.57;;;7.10;99.90;;;;;;5035868;28;20367;-79
2022/01/02 05:45:31;;;;;;;6.18;3.45;;;7.00;99.90;;;;;;5042142;28;20564;-79
2022/01/02 05:47:58;;;;;;;7.18;4.18;;;7.40;99.90;;;;;;5042674;28;20212;-79
2022/01/02 05:50:25;;;;;;;6.18;4.50;;;7.40;99.90;;;;;;5038756;28;20290;-79
2022/01/02 05:52:53;;;;;;;7.18;3.80;;;7.20;99.90;;;;;;5036356;28;20211;-79
2022/01/02 05:55:20;;;;;;;7.13;4.32;;;7.50;99.90;;;;;;5036150;28;20218;-80
2022/01/02 05:57:47;;;;;;;5.68;3.80;;;7.40;99.90;;;;;;5035932;28;20208;-80
2022/01/02 06:00:14;;;;;;;6.78;3.47;;;7.10;99.90;;;;;;5035507;28;20582;-80
2022/01/02 06:02:41;;;;;;;6.85;4.25;;;7.50;99.90;;;;;;5035557;28;20224;-79
2022/01/02 06:05:09;;;;;;;7.05;3.83;;;7.60;99.90;;;;;;5036340;28;20203;-80
2022/01/02 06:07:36;;;;;;;5.90;3.95;;;7.80;99.90;;;;;;5038783;28;20317;-79
2022/01/02 06:10:05;;;;;;;6.47;4.50;;;7.80;99.90;;;;;;5035516;28;20205;-79
2022/01/02 06:12:32;;;;;;;6.50;4.40;;;7.80;99.90;;;;;;5035806;28;20239;-79
2022/01/02 06:14:59;;;;;;;10.80;4.47;;;7.80;99.90;;;;;;5036589;28;20275;-80
2022/01/02 06:17:26;;;;;;;7.10;4.22;;;8.00;99.90;;;;;;5036055;28;20295;-80
2022/01/02 06:19:53;;;;;;;9.25;4.10;;;7.80;99.90;;;;;;5043286;28;20242;-80
2022/01/02 06:22:19;;;;;;;10.52;4.30;;;7.70;99.90;;;;;;5037221;28;20232;-80
2022/01/02 06:24:46;;;;;;;6.10;3.83;;;7.70;99.90;;;;;;5036976;28;20218;-79
2022/01/02 06:27:14;;;;;;;6.53;4.20;;;7.60;99.90;;;;;;5043929;28;20210;-80
2022/01/02 06:29:41;;;;;;;8.70;4.00;;;7.60;99.90;;;;;;5035692;28;20298;-80
2022/01/02 06:32:08;;;;;;;7.35;4.75;;;7.60;99.90;;;;;;5035535;28;20382;-80
2022/01/02 06:34:35;;;;;;;7.20;4.93;;;7.60;99.90;;;;;;5034900;28;20295;-80
2022/01/02 06:37:02;;;;;;;8.25;5.32;;;7.60;99.90;;;;;;5034869;28;20233;-80
2022/01/02 06:39:28;;;;;;;7.63;5.10;;;7.40;99.90;;;;;;5035003;28;20650;-80
2022/01/02 06:41:55;;;;;;;8.05;5.28;;;7.50;99.90;;;;;;5034475;28;20246;-79
2022/01/02 06:44:23;;;;;;;6.93;4.57;;;7.50;99.90;;;;;;5036960;28;20284;-79
2022/01/02 06:46:50;;;;;;;9.57;5.63;;;7.60;99.90;;;;;;5035035;28;20215;-80
2022/01/02 06:49:17;;;;;;;7.00;5.13;;;7.60;99.90;;;;;;5036447;28;20525;-79
2022/01/02 06:51:44;;;;;;;8.40;4.88;;;7.40;99.90;;;;;;5037505;28;20232;-80
2022/01/02 06:54:11;;;;;;;9.25;5.57;;;7.60;99.90;;;;;;5034890;28;20300;-80
2022/01/02 06:56:37;;;;;;;7.47;5.20;;;7.70;99.90;;;;;;5034250;28;20216;-79
2022/01/02 06:59:04;;;;;;;9.40;4.57;;;7.70;99.90;;;;;;5034295;28;20586;-79
2022/01/02 07:01:33;;;;;;;7.40;4.63;;;7.90;99.90;;;;;;5034806;28;20816;-79
2022/01/02 07:04:00;;;;;;;7.63;5.35;;;7.90;99.90;;;;;;5036236;28;20215;-79
2022/01/02 07:06:27;;;;;;;10.40;4.80;;;7.90;99.90;;;;;;5034907;28;20522;-79
2022/01/02 07:08:53;;;;;;;5.72;4.05;;;8.00;99.90;;;;;;5034602;28;20204;-79
2022/01/02 07:11:20;;;;;;;7.50;4.45;;;8.00;99.90;;;;;;5034767;28;20230;-80
2022/01/02 07:13:47;;;;;;;9.52;5.10;;;8.00;99.90;;;;;;5031760;28;20208;-76
2022/01/02 07:16:14;;;;;;;6.90;3.97;;;8.00;99.90;;;;;;5031105;28;20208;-76
2022/01/02 07:18:42;;;;;;;6.75;4.00;;;8.10;99.90;;;;;;5031322;28;20209;-75
2022/01/02 07:21:12;;;;;;;6.45;3.95;;;8.20;99.90;;;;;;5033391;28;20701;-75
2022/01/02 07:23:39;;;;;;;6.38;4.15;;;8.40;99.90;;;;;;5046207;28;20201;-76
2022/01/02 07:26:06;;;;;;;6.53;4.28;;;8.50;99.90;;;;;;5031407;28;20196;-74
2022/01/02 07:28:33;;;;;;;6.63;4.57;;;8.50;99.90;;;;;;5031939;28;20205;-76
2022/01/02 07:31:00;;;;;;;5.35;3.78;;;8.50;99.90;;;;;;5031774;28;20227;-77
2022/01/02 07:33:27;;;;;;;5.53;4.00;;;8.40;99.90;;;;;;5039418;28;20239;-78
2022/01/02 07:35:55;;;;;;;6.25;3.95;;;8.50;99.90;;;;;;5032226;28;20210;-78
2022/01/02 07:38:23;;;;;;;6.00;3.95;;;8.40;99.90;;;;;;5031670;28;20207;-77
2022/01/02 07:40:50;;;;;;;8.15;4.50;;;8.30;99.90;;;;;;5031335;28;20232;-78
2022/01/02 07:43:17;;;;;;;8.55;3.63;;;8.50;99.90;;;;;;5032130;28;20208;-78
2022/01/02 07:45:43;;;;;;;6.80;4.28;;;8.50;99.90;;;;;;5032423;28;20553;-78
2022/01/02 07:48:10;;;;;;;9.43;6.35;;;8.50;99.90;;;;;;5034771;28;20301;-76
2022/01/02 07:50:37;;;;;;;9.82;6.40;;;8.40;99.90;;;;;;5035687;28;20588;-77
2022/01/02 07:53:05;;;;;;;9.13;6.85;;;8.30;99.90;;;;;;5034954;28;20308;-76
2022/01/02 07:55:32;;;;;;;12.45;7.70;;;8.00;99.90;;;;;;5035256;28;20288;-77
2022/01/02 07:57:59;;;;;;;9.20;7.25;;;8.00;99.90;;;;;;5035884;28;20692;-78
2022/01/02 08:00:26;;;;;;;9.98;6.88;;;7.90;99.90;;;;;;5036519;28;20211;-77
2022/01/02 08:02:52;;;;;;;8.88;6.70;;;7.70;99.90;;;;;;5034695;28;20300;-77
2022/01/02 08:05:19;;;;;;;9.93;7.90;;;7.70;99.90;;;;;;5034855;28;20213;-77
2022/01/02 08:07:46;;;;;;;10.55;7.18;;;7.80;99.90;;;;;;5034861;28;20302;-78
2022/01/02 08:10:14;;;;;;;11.68;6.85;;;7.70;99.90;;;;;;5046743;28;20279;-79
2022/01/02 08:12:41;;;;;;;11.70;7.70;;;7.30;99.90;;;;;;5036126;28;20229;-78
2022/01/02 08:15:09;;;;;;;13.40;8.15;;;7.70;99.90;;;;;;5036893;28;20196;-79
2022/01/02 08:17:36;;;;;;;12.27;8.48;;;7.70;99.90;;;;;;5036996;28;20212;-78
2022/01/02 08:20:03;;;;;;;11.88;8.07;;;7.70;99.90;;;;;;5036115;28;20232;-79
2022/01/02 08:22:30;;;;;;;13.32;8.35;;;7.70;99.90;;;;;;5036162;28;20323;-78
2022/01/02 08:24:57;;;;;;;13.48;7.63;;;7.70;99.90;;;;;;5036428;28;20204;-78
2022/01/02 08:27:25;;;;;;;10.50;7.30;;;7.70;99.90;;;;;;5036275;28;20203;-78
2022/01/02 08:29:52;;;;;;;10.13;7.45;;;7.80;99.90;;;;;;5036353;28;20218;-78
2022/01/02 08:32:18;;;;;;;12.82;7.07;;;8.00;99.90;;;;;;5036442;28;20316;-78
2022/01/02 08:34:45;;;;;;;10.80;6.75;;;8.10;99.90;;;;;;5038766;28;20219;-79
2022/01/02 08:37:14;;;;;;;10.00;6.25;;;8.10;99.90;;;;;;5037778;28;20214;-80
2022/01/02 08:39:42;;;;;;;9.93;7.05;;;8.20;99.90;;;;;;5036778;28;20619;-79
2022/01/02 08:42:09;;;;;;;12.50;6.68;;;8.20;99.90;;;;;;5055834;28;20287;-78
2022/01/02 08:44:38;;;;;;;8.95;6.18;;;8.30;99.90;;;;;;5040878;28;20221;-77
2022/01/02 08:47:05;;;;;;;8.93;6.45;;;8.50;99.90;;;;;;5034070;28;20296;-77
2022/01/02 08:49:32;;;;;;;11.15;6.80;;;8.60;99.90;;;;;;5038194;28;20592;-77
2022/01/02 08:51:59;;;;;;;10.30;6.13;;;8.60;99.90;;;;;;5039083;28;20227;-77
2022/01/02 08:54:26;;;;;;;10.80;6.40;;;8.40;99.90;;;;;;5036062;28;20213;-76
2022/01/02 08:56:53;;;;;;;10.35;6.95;;;8.40;99.90;;;;;;5033923;28;20650;-76
2022/01/02 08:59:24;;;;;;;9.02;5.97;;;8.50;99.90;;;;;;5033892;28;20208;-77
2022/01/02 09:01:52;;;;;;;8.82;6.05;;;8.50;99.90;;;;;;5034429;28;20594;-77
2022/01/02 09:04:19;;;;;;;12.48;7.22;;;8.70;99.90;;;;;;5034163;28;20567;-77
2022/01/02 09:06:46;;;;;;;12.80;7.90;;;8.50;99.90;;;;;;5033763;28;20240;-77
2022/01/02 09:09:13;;;;;;;12.35;8.23;;;8.40;99.90;;;;;;5034778;28;20535;-78
2022/01/02 09:11:39;;;;;;;12.10;8.98;;;8.50;99.90;;;;;;5035381;28;20229;-77
2022/01/02 09:14:06;;;;;;;10.20;7.00;;;8.70;99.90;;;;;;5034079;28;20213;-76
2022/01/02 09:16:34;;;;;;;13.55;8.48;;;8.80;99.90;;;;;;5042591;28;20296;-79
2022/01/02 09:19:02;;;;;;;17.13;8.95;;;9.00;99.90;;;;;;5036212;28;20216;-77
2022/01/02 09:21:29;;;;;;;15.32;9.32;;;8.90;99.90;;;;;;5035404;28;20297;-77
2022/01/02 09:23:56;;;;;;;12.30;8.30;;;8.90;99.90;;;;;;5033625;28;20205;-77
2022/01/02 09:26:22;;;;;;;11.32;6.93;;;9.10;99.90;;;;;;5033917;28;20231;-78
2022/01/02 09:28:49;;;;;;;9.48;6.25;;;9.10;99.90;;;;;;5033743;28;20650;-78
2022/01/02 09:31:16;;;;;;;11.13;7.30;;;9.10;99.90;;;;;;5034756;28;20226;-77
2022/01/02 09:33:43;;;;;;;8.77;6.57;;;9.20;99.90;;;;;;5032961;28;20300;-76
2022/01/02 09:36:11;;;;;;;10.85;7.10;;;9.10;99.90;;;;;;5034567;28;20905;-78
2022/01/02 09:38:38;;;;;;;10.50;7.70;;;9.20;99.90;;;;;;5038713;28;20298;-79
2022/01/02 09:41:06;;;;;;;8.20;5.73;;;9.30;99.90;;;;;;5033915;28;20559;-77
2022/01/02 09:43:32;;;;;;;9.07;5.93;;;9.40;99.90;;;;;;5033201;28;20456;-77
2022/01/02 09:46:02;;;;;;;11.10;6.80;;;9.40;99.90;;;;;;5035835;28;20563;-76
2022/01/02 09:48:30;;;;;;;8.57;6.20;;;9.40;99.90;;;;;;5035197;28;20459;-77
2022/01/02 09:50:57;;;;;;;9.73;6.63;;;9.50;99.90;;;;;;5033390;28;20566;-78
2022/01/02 09:53:26;;;;;;;12.33;7.10;;;9.70;99.90;;;;;;5036570;28;20456;-77
2022/01/02 09:55:54;;;;;;;10.20;6.40;;;9.80;99.90;;;;;;5032530;28;20469;-77
2022/01/02 09:58:21;;;;;;;11.93;6.40;;;9.90;99.90;;;;;;5033888;28;20461;-77
2022/01/02 10:00:48;;;;;;;9.23;6.10;;;10.10;99.90;;;;;;5036481;28;20666;-77
2022/01/02 10:03:16;;;;;;;11.87;8.40;;;10.10;99.90;;;;;;5036172;28;20453;-77
2022/01/02 10:05:51;;;;;;;13.45;8.10;;;10.00;99.90;;;;;;5036468;28;20809;-79
2022/01/02 10:08:25;;;;;;;11.70;7.67;;;9.90;99.90;;;;;;5034534;28;20209;-77
2022/01/02 10:11:00;;;;;;;12.20;7.87;;;9.80;99.90;;;;;;5032285;28;20505;-77
2022/01/02 10:13:45;;;;;;;10.57;7.30;;;9.80;99.90;;;;;;5033759;28;20448;-77
2022/01/02 10:16:30;;;;;;;10.25;6.40;;;9.90;99.90;;;;;;5034491;28;20747;-77
2022/01/02 10:18:58;;;;;;;8.53;6.13;;;10.00;99.90;;;;;;5035685;28;20202;-78
2022/01/02 10:21:36;;;;;;;10.60;6.50;;;10.10;99.90;;;;;;5034421;28;20499;-78
2022/01/02 10:24:13;;;;;;;12.85;6.93;;;10.10;99.90;;;;;;5033285;28;20458;-77
2022/01/02 10:26:40;;;;;;;11.50;6.60;;;10.10;99.90;;;;;;5033738;28;20221;-78
2022/01/02 10:29:14;;;;;;;9.03;7.00;;;10.20;99.90;;;;;;5034665;28;20463;-78
2022/01/02 10:31:41;;;;;;;8.67;6.37;;;10.40;99.90;;;;;;5036717;28;20468;-78
2022/01/02 10:34:08;;;;;;;12.57;6.77;;;10.40;99.90;;;;;;5032682;28;20482;-77
2022/01/02 10:36:37;;;;;;;9.17;6.53;;;10.50;99.90;;;;;;5031802;28;20452;-77
2022/01/02 10:39:10;;;;;;;11.47;7.50;;;10.60;99.90;;;;;;5032619;28;20522;-74
2022/01/02 10:41:40;;;;;;;8.88;5.55;;;10.60;99.90;;;;;;5031588;28;20497;-75
2022/01/02 10:44:22;;;;;;;9.37;5.60;;;10.50;99.90;;;;;;5032053;28;20251;-74
2022/01/02 10:47:09;;;;;;;9.70;6.30;;;10.40;99.90;;;;;;5032087;28;20456;-74
2022/01/02 10:49:54;;;;;;;9.57;6.90;;;10.30;99.90;;;;;;5031775;28;20564;-74
2022/01/02 10:52:23;;;;;;;8.00;5.90;;;10.10;99.90;;;;;;5031546;28;20229;-74
2022/01/02 10:54:50;;;;;;;8.67;6.20;;;10.10;99.90;;;;;;5031613;28;20453;-74
2022/01/02 10:57:18;;;;;;;8.43;6.13;;;10.00;99.90;;;;;;5031520;28;20547;-75
2022/01/02 10:59:46;;;;;;;9.53;6.83;;;9.90;99.90;;;;;;5031236;28;20314;-75
2022/01/02 11:02:14;;;;;;;10.33;7.00;;;10.00;99.90;;;;;;5031135;28;20497;-76
2022/01/02 11:04:47;;;;;;;9.20;6.57;;;10.10;99.90;;;;;;5031558;28;20461;-79
2022/01/02 11:07:22;;;;;;;12.17;8.07;;;10.40;99.90;;;;;;5033951;28;20433;-77
2022/01/02 11:09:52;;;;;;;11.47;7.50;;;10.50;99.90;;;;;;5032303;28;20724;-77
2022/01/02 11:12:21;;;;;;;9.20;7.20;;;10.60;99.90;;;;;;5034323;28;20501;-78
2022/01/02 11:14:49;;;;;;;8.50;6.70;;;10.60;99.90;;;;;;5035647;28;20452;-78
2022/01/02 11:17:17;;;;;;;10.03;7.53;;;10.80;99.90;;;;;;5035597;28;20457;-77
2022/01/02 11:19:43;;;;;;;7.83;5.83;;;10.90;99.90;;;;;;5038618;28;20464;-77
2022/01/02 11:22:14;;;;;;;6.70;4.13;;;11.30;99.90;;;;;;5036110;28;20503;-78
2022/01/02 11:24:49;;;;;;;9.00;4.30;;;11.40;99.90;;;;;;5037690;28;20457;-80
2022/01/02 11:27:24;;;;;;;7.93;6.10;;;11.60;99.90;;;;;;5038343;28;20436;-78
2022/01/02 11:29:51;;;;;;;9.00;5.70;;;11.70;99.90;;;;;;5039356;28;20897;-78
2022/01/02 11:32:25;;;;;;;8.43;5.40;;;11.80;99.90;;;;;;5037718;28;20552;-77
2022/01/02 11:34:52;;;;;;;11.17;6.20;;;12.00;99.90;;;;;;5039418;28;20438;-78
2022/01/02 11:37:24;;;;;;;11.97;8.90;;;12.10;99.90;;;;;;5039688;28;20862;-79
2022/01/02 11:39:53;;;;;;;8.10;5.50;;;12.20;99.90;;;;;;5039039;28;20437;-79
2022/01/02 11:42:47;;;;;;;8.90;5.73;;;12.30;99.90;;;;;;5063719;22;20572;-85
2022/01/02 11:45:41;;;;;;;9.03;6.83;;;12.40;99.90;;;;;;5045528;28;20461;-85
2022/01/02 11:48:32;;;;;;;9.47;6.80;;;12.60;99.90;;;;;;5046218;28;20437;-86
2022/01/02 11:50:59;;;;;;;9.27;6.83;;;12.60;99.90;;;;;;5059751;28;20438;-86
2022/01/02 11:53:28;;;;;;;9.87;6.43;;;12.50;99.90;;;;;;5060574;28;20456;-85
2022/01/02 11:55:56;;;;;;;12.13;7.10;;;12.50;99.90;;;;;;5053588;28;20464;-86
2022/01/02 11:58:50;;;;;;;9.30;4.03;;;12.50;99.90;;;;;;5059141;28;20448;-85
2022/01/02 12:01:51;;;;;;;9.60;6.03;;;12.50;99.90;;;;;;5058695;28;20466;-85
2022/01/02 12:04:17;;;;;;;8.17;3.60;;;12.70;99.90;;;;;;5058218;28;20451;-86
2022/01/02 12:06:45;;;;;;;6.03;2.80;;;12.70;99.90;;;;;;5053018;28;20497;-82
2022/01/02 12:09:35;;;;;;;4.47;2.53;;;12.80;99.90;;;;;;5053499;28;20455;-83
2022/01/02 12:12:04;;;;;;;4.73;1.77;;;12.90;99.90;;;;;;5053947;28;20500;-84
2022/01/02 12:14:32;;;;;;;3.63;2.03;;;13.10;99.90;;;;;;5051454;28;20484;-84
2022/01/02 12:17:09;;;;;;;3.90;1.87;;;13.20;99.90;;;;;;5050761;28;20491;-84
2022/01/02 12:19:59;;;;;;;4.90;2.13;;;13.30;99.90;;;;;;5049385;28;20437;-83
2022/01/02 12:22:44;;;;;;;4.40;2.07;;;13.50;99.90;;;;;;5049986;28;20496;-84
2022/01/02 12:25:16;;;;;;;5.23;1.90;;;13.60;99.90;;;;;;5050450;28;20497;-84
2022/01/02 12:27:51;;;;;;;4.37;1.60;;;13.70;99.90;;;;;;5049269;28;20446;-85
2022/01/02 12:30:20;;;;;;;3.30;1.80;;;13.80;99.80;;;;;;5048020;28;20437;-84
2022/01/02 12:32:48;;;;;;;4.20;1.83;;;13.90;99.80;;;;;;5048470;28;20505;-85
2022/01/02 12:35:15;;;;;;;5.27;2.20;;;14.00;99.10;;;;;;5045326;28;20468;-86
2022/01/02 12:37:42;;;;;;;4.07;1.87;;;14.10;99.00;;;;;;5046734;28;20455;-85
2022/01/02 12:40:17;;;;;;;5.50;1.80;;;14.10;98.80;;;;;;5046068;28;20428;-84
2022/01/02 12:42:45;;;;;;;3.90;1.70;;;14.30;97.80;;;;;;5045221;28;20530;-86
2022/01/02 12:45:12;;;;;;;4.40;1.70;;;14.30;97.70;;;;;;5050172;28;20439;-83
2022/01/02 12:47:51;;;;;;;4.50;2.37;;;14.40;97.50;;;;;;5043903;28;20434;-86
2022/01/02 12:50:29;;;;;;;4.10;2.20;;;14.40;97.30;;;;;;5043884;28;20412;-85
2022/01/02 12:52:57;;;;;;;3.40;1.40;;;14.50;97.20;;;;;;5042903;28;20450;-86
2022/01/02 12:55:25;;;;;;;4.83;1.83;;;14.50;96.80;;;;;;5042124;28;20599;-86
2022/01/02 12:58:03;;;;;;;5.50;2.20;;;14.50;96.80;;;;;;5042510;28;20942;-86
2022/01/02 13:00:29;;;;;;;6.23;2.50;;;14.60;96.80;;;;;;5044008;28;20404;-85
2022/01/02 13:02:58;;;;;;;3.83;1.63;;;14.80;96.80;;;;;;5044714;28;20493;-85
2022/01/02 13:05:25;;;;;;;5.37;2.50;;;14.80;96.80;;;;;;5056115;28;20434;-86
2022/01/02 13:07:59;;;;;;;6.13;2.17;;;14.80;96.90;;;;;;5059393;28;20420;-86
2022/01/02 13:10:26;;;;;;;4.13;1.53;;;14.80;97.00;;;;;;5047036;28;20923;-86
2022/01/02 13:12:52;;;;;;;4.60;2.20;;;14.90;97.00;;;;;;5043636;28;20461;-85